Time;durP1;ratioP1;P1;durP2;ratioP2;P2;SDS_P1;SDS_P2;PMS_P1;PMS_P2;Temp;Humidity;BMP_temperature;BMP_pressure;BME280_temperature;BME280_humidity;BME280_pressure;Samples;Min_cycle;Max_cycle;Signal;HPM_P1;HPM_P2
2022/07/07 00:00:47;;;;;;;;;1.50;1.50;;;;;;;;5096260;27;46077;-52
2022/07/07 00:03:13;;;;;;;;;2.00;2.00;;;;;;;;5096269;27;45365;-51
2022/07/07 00:05:38;;;;;;;;;2.75;2.75;;;;;;;;5098902;27;45366;-47
2022/07/07 00:08:04;;;;;;;;;2.00;2.00;;;;;;;;5099872;27;45478;-52
2022/07/07 00:10:29;;;;;;;;;1.50;1.50;;;;;;;;5099456;27;45608;-56
2022/07/07 00:12:55;;;;;;;;;1.75;1.75;;;;;;;;5099838;27;45454;-53
2022/07/07 00:15:20;;;;;;;;;1.25;1.25;;;;;;;;5098167;27;45479;-47
2022/07/07 00:17:45;;;;;;;;;2.75;2.00;;;;;;;;5095949;27;45517;-46
2022/07/07 00:20:11;;;;;;;;;0.75;0.75;;;;;;;;5077487;28;45576;-51
2022/07/07 00:22:36;;;;;;;;;2.00;2.00;;;;;;;;5078581;28;45407;-49
2022/07/07 00:25:01;;;;;;;;;1.00;1.00;;;;;;;;5078719;27;45346;-49
2022/07/07 00:27:26;;;;;;;;;1.75;1.75;;;;;;;;5079145;28;45321;-54
2022/07/07 00:29:52;;;;;;;;;1.00;1.00;;;;;;;;5078380;28;46480;-52
2022/07/07 00:32:17;;;;;;;;;2.00;2.00;;;;;;;;5078822;28;45229;-51
2022/07/07 00:34:42;;;;;;;;;1.00;1.00;;;;;;;;5078337;28;45346;-53
2022/07/07 00:37:07;;;;;;;;;1.75;1.75;;;;;;;;5078883;28;45530;-51
2022/07/07 00:39:33;;;;;;;;;0.75;0.50;;;;;;;;5078483;27;45691;-46
2022/07/07 00:41:58;;;;;;;;;1.00;1.00;;;;;;;;5078315;28;45340;-52
2022/07/07 00:44:23;;;;;;;;;1.25;1.25;;;;;;;;5078373;27;45351;-50
2022/07/07 00:46:50;;;;;;;;;1.00;1.00;;;;;;;;5078581;28;45334;-48
2022/07/07 00:49:15;;;;;;;;;1.00;1.00;;;;;;;;5078473;28;45354;-52
2022/07/07 00:51:41;;;;;;;;;0.75;0.75;;;;;;;;5076710;28;45399;-53
2022/07/07 00:54:06;;;;;;;;;2.00;2.00;;;;;;;;5078126;28;45463;-48
2022/07/07 00:56:32;;;;;;;;;3.00;2.00;;;;;;;;5078444;28;45386;-48
2022/07/07 00:58:59;;;;;;;;;2.00;1.75;;;;;;;;5078085;28;45377;-47
2022/07/07 01:01:24;;;;;;;;;2.00;2.00;;;;;;;;5078354;28;45673;-49
2022/07/07 01:03:49;;;;;;;;;3.00;2.00;;;;;;;;5078368;28;45296;-48
2022/07/07 01:06:15;;;;;;;;;1.75;1.75;;;;;;;;5078186;28;45398;-54
2022/07/07 01:08:40;;;;;;;;;1.50;1.50;;;;;;;;5077084;28;45424;-54
2022/07/07 01:11:05;;;;;;;;;2.00;2.00;;;;;;;;5076681;28;45383;-48
2022/07/07 01:13:31;;;;;;;;;2.75;2.75;;;;;;;;5078411;28;45301;-52
2022/07/07 01:15:56;;;;;;;;;2.00;2.00;;;;;;;;5077990;28;45300;-50
2022/07/07 01:18:21;;;;;;;;;2.00;2.00;;;;;;;;5078639;27;46775;-47
2022/07/07 01:20:47;;;;;;;;;2.00;2.00;;;;;;;;5098492;27;45379;-49
2022/07/07 01:23:12;;;;;;;;;1.00;1.00;;;;;;;;5098361;27;45720;-51
2022/07/07 01:25:38;;;;;;;;;3.00;3.00;;;;;;;;5098578;27;45326;-46
2022/07/07 01:28:03;;;;;;;;;1.00;1.00;;;;;;;;5098229;27;46500;-52
2022/07/07 01:30:28;;;;;;;;;1.00;1.00;;;;;;;;5098135;27;45426;-50
2022/07/07 01:32:54;;;;;;;;;2.25;2.25;;;;;;;;5098868;27;45339;-50
2022/07/07 01:35:19;;;;;;;;;2.75;2.75;;;;;;;;5098427;27;45328;-49
2022/07/07 01:37:44;;;;;;;;;1.50;1.50;;;;;;;;5097909;27;46695;-47
2022/07/07 01:40:09;;;;;;;;;2.00;2.00;;;;;;;;5098116;27;45387;-50
2022/07/07 01:42:35;;;;;;;;;3.25;3.25;;;;;;;;5097698;27;45362;-50
2022/07/07 01:45:00;;;;;;;;;2.00;2.00;;;;;;;;5098327;27;45467;-47
2022/07/07 01:47:25;;;;;;;;;2.00;2.00;;;;;;;;5097851;27;46613;-54
2022/07/07 01:49:51;;;;;;;;;3.25;2.50;;;;;;;;5096845;27;45325;-53
2022/07/07 01:52:16;;;;;;;;;1.00;1.00;;;;;;;;5097691;27;45776;-52
2022/07/07 01:54:42;;;;;;;;;3.25;3.00;;;;;;;;5097977;27;45394;-53
2022/07/07 01:57:07;;;;;;;;;2.00;2.00;;;;;;;;5097703;27;46687;-48
2022/07/07 01:59:32;;;;;;;;;4.00;2.00;;;;;;;;5096324;27;45297;-48
2022/07/07 02:01:58;;;;;;;;;2.00;1.75;;;;;;;;5048653;27;45432;-47
2022/07/07 02:04:23;;;;;;;;;2.00;2.00;;;;;;;;5076442;27;45479;-49
2022/07/07 02:06:49;;;;;;;;;1.00;1.00;;;;;;;;5076837;27;46905;-50
2022/07/07 02:09:14;;;;;;;;;2.00;2.00;;;;;;;;5076925;28;45294;-53
2022/07/07 02:11:40;;;;;;;;;2.50;2.50;;;;;;;;5077117;27;45421;-49
2022/07/07 02:14:06;;;;;;;;;1.00;1.00;;;;;;;;5077602;27;45325;-48
2022/07/07 02:16:33;;;;;;;;;1.40;1.40;;;;;;;;5076876;28;46729;-45
2022/07/07 02:18:59;;;;;;;;;4.00;1.00;;;;;;;;5083810;27;45579;-47
2022/07/07 02:21:24;;;;;;;;;0.75;0.75;;;;;;;;5097969;27;45270;-51
2022/07/07 02:23:49;;;;;;;;;2.00;2.00;;;;;;;;5097718;27;45569;-53
2022/07/07 02:26:15;;;;;;;;;3.00;2.00;;;;;;;;5097653;27;46890;-48
2022/07/07 02:28:40;;;;;;;;;1.75;1.75;;;;;;;;5096719;27;45367;-51
2022/07/07 02:31:05;;;;;;;;;1.25;0.75;;;;;;;;5097745;27;45763;-51
2022/07/07 02:33:31;;;;;;;;;2.00;2.00;;;;;;;;5097818;27;45266;-47
2022/07/07 02:35:57;;;;;;;;;1.00;1.00;;;;;;;;5095923;27;45391;-47
2022/07/07 02:38:22;;;;;;;;;0.60;0.60;;;;;;;;5097242;27;45315;-49
2022/07/07 02:40:48;;;;;;;;;0.75;0.75;;;;;;;;5096265;27;45401;-49
2022/07/07 02:43:13;;;;;;;;;0.75;0.75;;;;;;;;5096622;27;46060;-47
2022/07/07 02:45:40;;;;;;;;;2.25;2.25;;;;;;;;5097286;27;46706;-53
2022/07/07 02:48:05;;;;;;;;;1.20;1.20;;;;;;;;5097182;27;45442;-49
2022/07/07 02:50:30;;;;;;;;;2.00;2.00;;;;;;;;5097501;27;45361;-50
2022/07/07 02:52:55;;;;;;;;;1.75;1.75;;;;;;;;5097225;27;45575;-47
2022/07/07 02:55:21;;;;;;;;;2.00;2.00;;;;;;;;5097071;27;45573;-44
2022/07/07 02:57:46;;;;;;;;;3.25;2.25;;;;;;;;5096815;27;45383;-47
2022/07/07 03:00:11;;;;;;;;;1.00;1.00;;;;;;;;5097360;27;45312;-50
2022/07/07 03:02:37;;;;;;;;;2.50;2.50;;;;;;;;5096744;27;45503;-50
2022/07/07 03:05:02;;;;;;;;;2.00;2.00;;;;;;;;5096879;27;45545;-50
2022/07/07 03:07:27;;;;;;;;;2.00;2.00;;;;;;;;5095649;27;45403;-51
2022/07/07 03:09:53;;;;;;;;;2.50;2.50;;;;;;;;5097268;27;45217;-48
2022/07/07 03:12:18;;;;;;;;;2.75;1.00;;;;;;;;5097414;27;45537;-48
2022/07/07 03:14:43;;;;;;;;;2.75;2.75;;;;;;;;5096881;27;46552;-50
2022/07/07 03:17:09;;;;;;;;;2.50;1.50;;;;;;;;5097111;27;45320;-45
2022/07/07 03:19:39;;;;;;;;;2.00;2.00;;;;;;;;5084792;27;45288;-46
2022/07/07 03:22:04;;;;;;;;;4.80;2.60;;;;;;;;5076713;28;45389;-52
2022/07/07 03:24:31;;;;;;;;;4.25;2.50;;;;;;;;5076378;28;45376;-48
2022/07/07 03:26:56;;;;;;;;;1.60;1.60;;;;;;;;5076099;28;45295;-48
2022/07/07 03:29:21;;;;;;;;;5.50;2.25;;;;;;;;5076379;28;45368;-46
2022/07/07 03:31:47;;;;;;;;;0.50;0.50;;;;;;;;5076372;28;45606;-48
2022/07/07 03:34:12;;;;;;;;;2.00;2.00;;;;;;;;5076078;28;45424;-51
2022/07/07 03:36:37;;;;;;;;;4.25;3.50;;;;;;;;5076184;28;45359;-50
2022/07/07 03:39:03;;;;;;;;;3.50;3.25;;;;;;;;5076306;28;45399;-47
2022/07/07 03:41:28;;;;;;;;;2.25;2.25;;;;;;;;5080065;28;45338;-49
2022/07/07 03:43:53;;;;;;;;;3.50;2.50;;;;;;;;5079232;28;46488;-53
2022/07/07 03:46:18;;;;;;;;;3.00;3.00;;;;;;;;5049901;27;45487;-49
2022/07/07 03:48:44;;;;;;;;;2.75;1.75;;;;;;;;5079720;28;45428;-47
2022/07/07 03:51:09;;;;;;;;;3.50;2.25;;;;;;;;5079778;28;45328;-50
2022/07/07 03:53:34;;;;;;;;;4.00;3.00;;;;;;;;5079146;28;46911;-47
2022/07/07 03:56:00;;;;;;;;;3.00;2.00;;;;;;;;5079341;28;45810;-49
2022/07/07 03:58:25;;;;;;;;;2.25;2.00;;;;;;;;5079433;28;45433;-51
2022/07/07 04:00:50;;;;;;;;;5.00;3.25;;;;;;;;5079858;28;45286;-51
2022/07/07 04:03:16;;;;;;;;;3.75;3.75;;;;;;;;5078942;28;46516;-47
2022/07/07 04:05:41;;;;;;;;;5.25;4.00;;;;;;;;5079418;27;45451;-49
2022/07/07 04:08:07;;;;;;;;;2.25;2.25;;;;;;;;5079206;28;45380;-50
2022/07/07 04:10:32;;;;;;;;;2.50;2.50;;;;;;;;5079654;28;45777;-49
2022/07/07 04:12:57;;;;;;;;;4.00;3.75;;;;;;;;5079030;28;46818;-46
2022/07/07 04:15:23;;;;;;;;;4.00;4.00;;;;;;;;5079168;28;45340;-47
2022/07/07 04:17:48;;;;;;;;;5.00;4.00;;;;;;;;5079065;27;45363;-49
2022/07/07 04:20:13;;;;;;;;;4.00;4.00;;;;;;;;5094786;27;45422;-52
2022/07/07 04:22:38;;;;;;;;;4.00;4.00;;;;;;;;5099147;27;46613;-48
2022/07/07 04:25:04;;;;;;;;;4.00;4.00;;;;;;;;5099329;27;45355;-51
2022/07/07 04:27:29;;;;;;;;;4.25;4.25;;;;;;;;5099044;27;45422;-54
2022/07/07 04:29:54;;;;;;;;;5.00;5.00;;;;;;;;5099300;27;45339;-47
2022/07/07 04:32:20;;;;;;;;;6.50;5.00;;;;;;;;5098822;27;45381;-51
2022/07/07 04:34:45;;;;;;;;;3.50;3.00;;;;;;;;5097477;27;45323;-47
2022/07/07 04:37:10;;;;;;;;;3.00;3.00;;;;;;;;5099343;27;45419;-47
2022/07/07 04:39:35;;;;;;;;;5.00;5.00;;;;;;;;5098705;27;45556;-49
2022/07/07 04:42:01;;;;;;;;;4.75;4.75;;;;;;;;5098874;27;45476;-55
2022/07/07 04:44:26;;;;;;;;;4.00;3.75;;;;;;;;5098756;27;45416;-49
2022/07/07 04:46:51;;;;;;;;;3.00;3.00;;;;;;;;5099091;27;45510;-51
2022/07/07 04:49:16;;;;;;;;;3.75;3.75;;;;;;;;5098843;27;45653;-49
2022/07/07 04:51:42;;;;;;;;;5.00;4.50;;;;;;;;5057665;27;45929;-47
2022/07/07 04:54:07;;;;;;;;;7.00;4.50;;;;;;;;5078335;27;45218;-51
2022/07/07 04:56:33;;;;;;;;;7.00;4.50;;;;;;;;5077908;28;45374;-44
2022/07/07 04:58:58;;;;;;;;;5.25;3.75;;;;;;;;5078516;27;45262;-48
2022/07/07 05:01:23;;;;;;;;;3.75;3.75;;;;;;;;5078194;28;46599;-49
2022/07/07 05:03:48;;;;;;;;;4.25;4.25;;;;;;;;5076789;28;45336;-49
2022/07/07 05:06:14;;;;;;;;;5.50;4.00;;;;;;;;5078112;28;45325;-54
2022/07/07 05:08:39;;;;;;;;;5.00;4.00;;;;;;;;5077979;27;45337;-50
2022/07/07 05:11:05;;;;;;;;;8.00;5.50;;;;;;;;5076734;28;47373;-48
2022/07/07 05:13:30;;;;;;;;;6.50;5.50;;;;;;;;5077212;27;45360;-47
2022/07/07 05:15:55;;;;;;;;;7.00;5.00;;;;;;;;5077673;27;45793;-47
2022/07/07 05:18:21;;;;;;;;;3.00;3.00;;;;;;;;5078107;27;45570;-49
2022/07/07 05:20:46;;;;;;;;;6.75;4.75;;;;;;;;5095768;27;45484;-50
2022/07/07 05:23:12;;;;;;;;;5.00;5.00;;;;;;;;5098341;27;45322;-49
2022/07/07 05:25:37;;;;;;;;;6.50;5.25;;;;;;;;5098670;27;45270;-48
2022/07/07 05:28:02;;;;;;;;;3.75;3.75;;;;;;;;5098859;27;45489;-48
2022/07/07 05:30:28;;;;;;;;;6.00;5.00;;;;;;;;5098274;27;46222;-55
2022/07/07 05:32:53;;;;;;;;;9.75;5.00;;;;;;;;5097586;27;45356;-48
2022/07/07 05:35:18;;;;;;;;;4.00;3.00;;;;;;;;5098407;27;45326;-49
2022/07/07 05:37:43;;;;;;;;;5.00;4.00;;;;;;;;5098575;27;45349;-48
2022/07/07 05:40:09;;;;;;;;;2.75;2.75;;;;;;;;5098033;27;45398;-49
2022/07/07 05:42:34;;;;;;;;;3.75;2.50;;;;;;;;5097840;27;45237;-51
2022/07/07 05:44:59;;;;;;;;;3.50;3.25;;;;;;;;5098051;27;45463;-49
2022/07/07 05:47:25;;;;;;;;;5.00;4.25;;;;;;;;5098570;27;45463;-46
2022/07/07 05:49:50;;;;;;;;;5.50;2.50;;;;;;;;5097805;27;45365;-47
2022/07/07 05:52:15;;;;;;;;;4.00;3.00;;;;;;;;5097842;27;45335;-52
2022/07/07 05:54:41;;;;;;;;;4.50;2.50;;;;;;;;5097933;27;45383;-49
2022/07/07 05:57:06;;;;;;;;;3.25;3.25;;;;;;;;5098400;27;45594;-45
2022/07/07 05:59:32;;;;;;;;;7.25;3.25;;;;;;;;5096253;27;45835;-47
2022/07/07 06:01:57;;;;;;;;;3.50;3.50;;;;;;;;5096934;27;45276;-52
2022/07/07 06:04:23;;;;;;;;;3.50;2.50;;;;;;;;5097817;27;45320;-50
2022/07/07 06:06:48;;;;;;;;;3.40;3.40;;;;;;;;5097834;27;45604;-48
2022/07/07 06:09:14;;;;;;;;;3.75;3.75;;;;;;;;5097361;27;45837;-50
2022/07/07 06:11:39;;;;;;;;;3.00;2.00;;;;;;;;5097963;27;45272;-51
2022/07/07 06:14:04;;;;;;;;;3.50;3.50;;;;;;;;5097469;27;45437;-50
2022/07/07 06:16:39;;;;;;;;;3.25;3.25;;;;;;;;5098257;27;45306;-46
2022/07/07 06:19:08;;;;;;;;;5.20;3.20;;;;;;;;5094663;27;45514;-55
2022/07/07 06:21:33;;;;;;;;;3.60;2.60;;;;;;;;5076639;28;45300;-52
2022/07/07 06:23:58;;;;;;;;;3.00;3.00;;;;;;;;5076830;28;45264;-50
2022/07/07 06:26:24;;;;;;;;;3.00;3.00;;;;;;;;5076151;28;45292;-52
2022/07/07 06:28:49;;;;;;;;;4.50;3.25;;;;;;;;5076718;28;46450;-50
2022/07/07 06:31:14;;;;;;;;;3.25;2.50;;;;;;;;5076215;27;45360;-53
2022/07/07 06:33:40;;;;;;;;;5.25;4.50;;;;;;;;5077014;27;45600;-52
2022/07/07 06:36:05;;;;;;;;;3.00;3.00;;;;;;;;5077093;28;45339;-47
2022/07/07 06:38:30;;;;;;;;;3.25;3.25;;;;;;;;5069721;27;45960;-55
2022/07/07 06:40:59;;;;;;;;;4.25;2.50;;;;;;;;5076121;27;45367;-49
2022/07/07 06:43:24;;;;;;;;;3.00;3.00;;;;;;;;5075744;27;45234;-52
2022/07/07 06:45:50;;;;;;;;;2.75;2.75;;;;;;;;5094175;27;45351;-49
2022/07/07 06:48:15;;;;;;;;;4.00;4.00;;;;;;;;5095529;27;46537;-48
2022/07/07 06:50:40;;;;;;;;;4.00;3.25;;;;;;;;5095685;27;45388;-49
2022/07/07 06:53:06;;;;;;;;;4.00;4.00;;;;;;;;5082739;27;45871;-51
2022/07/07 06:55:31;;;;;;;;;5.00;5.00;;;;;;;;5075292;28;45549;-53
2022/07/07 06:57:56;;;;;;;;;3.50;3.00;;;;;;;;5075977;27;47880;-49
2022/07/07 07:00:22;;;;;;;;;71.25;38.75;;;;;;;;5075796;28;45399;-50
2022/07/07 07:02:48;;;;;;;;;4.00;3.25;;;;;;;;5057256;27;45939;-46
2022/07/07 07:05:14;;;;;;;;;4.80;4.80;;;;;;;;5076228;28;46014;-44
2022/07/07 07:07:39;;;;;;;;;7.50;4.00;;;;;;;;5075855;27;45344;-50
2022/07/07 07:10:05;;;;;;;;;6.50;5.50;;;;;;;;5076064;28;45401;-54
2022/07/07 07:12:30;;;;;;;;;3.00;1.75;;;;;;;;5075999;28;45322;-52
2022/07/07 07:14:55;;;;;;;;;13.00;6.75;;;;;;;;5076006;28;45355;-51
2022/07/07 07:17:20;;;;;;;;;5.25;3.00;;;;;;;;5075519;28;46591;-51
2022/07/07 07:19:46;;;;;;;;;3.75;2.75;;;;;;;;5081686;27;45406;-48
2022/07/07 07:22:11;;;;;;;;;6.25;3.75;;;;;;;;5096660;27;45292;-46
2022/07/07 07:24:36;;;;;;;;;5.50;4.75;;;;;;;;5096443;27;45443;-48
2022/07/07 07:27:02;;;;;;;;;3.00;3.00;;;;;;;;5068150;27;46356;-51
2022/07/07 07:29:27;;;;;;;;;5.25;3.25;;;;;;;;5086445;27;45438;-47
2022/07/07 07:31:52;;;;;;;;;3.00;2.25;;;;;;;;5075697;28;45304;-49
2022/07/07 07:34:18;;;;;;;;;3.75;3.00;;;;;;;;5076167;28;45388;-49
2022/07/07 07:36:43;;;;;;;;;7.00;4.75;;;;;;;;5074550;27;46705;-50
2022/07/07 07:39:08;;;;;;;;;3.50;3.50;;;;;;;;5089674;27;45254;-50
2022/07/07 07:41:34;;;;;;;;;2.00;2.00;;;;;;;;5087160;27;45359;-47
2022/07/07 07:43:59;;;;;;;;;3.00;3.00;;;;;;;;5076122;28;45623;-46
2022/07/07 07:46:24;;;;;;;;;1.75;1.75;;;;;;;;5083791;27;46675;-50
2022/07/07 07:48:49;;;;;;;;;2.00;2.00;;;;;;;;5096246;27;45367;-48
2022/07/07 07:51:15;;;;;;;;;2.00;2.00;;;;;;;;5091252;27;45371;-48
2022/07/07 07:53:40;;;;;;;;;5.50;4.00;;;;;;;;5075017;27;45758;-53
2022/07/07 07:56:05;;;;;;;;;2.50;2.50;;;;;;;;5091112;27;46089;-49
2022/07/07 07:58:31;;;;;;;;;2.75;2.75;;;;;;;;5095969;27;45350;-52
2022/07/07 08:00:56;;;;;;;;;2.50;2.25;;;;;;;;5095851;27;45216;-53
2022/07/07 08:03:21;;;;;;;;;5.75;5.00;;;;;;;;5096252;27;45592;-50
2022/07/07 08:05:47;;;;;;;;;2.50;2.50;;;;;;;;5052388;27;46955;-44
2022/07/07 08:08:12;;;;;;;;;3.50;3.50;;;;;;;;5068935;27;45668;-54
2022/07/07 08:10:37;;;;;;;;;2.00;2.00;;;;;;;;5074636;28;45736;-49
2022/07/07 08:13:02;;;;;;;;;3.00;3.00;;;;;;;;5075531;28;45410;-50
2022/07/07 08:15:28;;;;;;;;;3.00;1.75;;;;;;;;5075398;28;46493;-52
2022/07/07 08:17:53;;;;;;;;;3.25;2.25;;;;;;;;5073605;27;45447;-56
2022/07/07 08:20:18;;;;;;;;;3.75;2.50;;;;;;;;5084698;27;45383;-52
2022/07/07 08:22:44;;;;;;;;;3.00;1.00;;;;;;;;5095992;27;45350;-56
2022/07/07 08:25:09;;;;;;;;;4.25;3.00;;;;;;;;5096124;27;45917;-53
2022/07/07 08:27:34;;;;;;;;;4.25;3.00;;;;;;;;5092138;27;45359;-46
2022/07/07 08:30:01;;;;;;;;;2.50;2.50;;;;;;;;5090588;27;45824;-51
2022/07/07 08:32:26;;;;;;;;;1.80;1.80;;;;;;;;5079003;27;45279;-52
2022/07/07 08:34:51;;;;;;;;;6.00;2.25;;;;;;;;5078400;28;46123;-50
2022/07/07 08:37:16;;;;;;;;;3.00;2.50;;;;;;;;5078441;28;45345;-51
2022/07/07 08:39:42;;;;;;;;;3.00;2.00;;;;;;;;5078357;28;45419;-50
2022/07/07 08:42:07;;;;;;;;;3.25;2.00;;;;;;;;5076263;27;45592;-50
2022/07/07 08:44:32;;;;;;;;;3.50;3.50;;;;;;;;5076974;28;45528;-49
2022/07/07 08:46:58;;;;;;;;;2.25;2.25;;;;;;;;5078488;27;45305;-48
2022/07/07 08:49:23;;;;;;;;;1.75;1.75;;;;;;;;5078752;27;45321;-46
2022/07/07 08:51:48;;;;;;;;;2.00;2.00;;;;;;;;5078459;27;45284;-52
2022/07/07 08:54:14;;;;;;;;;2.00;1.50;;;;;;;;5076867;27;46319;-53
2022/07/07 08:56:39;;;;;;;;;2.00;2.00;;;;;;;;5078522;27;45764;-53
2022/07/07 08:59:11;;;;;;;;;3.00;2.50;;;;;;;;5078332;27;45808;-51
2022/07/07 09:01:36;;;;;;;;;2.80;2.80;;;;;;;;5078428;27;45773;-49
2022/07/07 09:04:02;;;;;;;;;2.00;2.00;;;;;;;;5078057;28;46182;-51
2022/07/07 09:06:27;;;;;;;;;3.50;2.00;;;;;;;;5075040;27;45439;-53
2022/07/07 09:08:53;;;;;;;;;1.75;1.75;;;;;;;;5077976;27;45744;-49
2022/07/07 09:11:28;;;;;;;;;5.00;3.00;;;;;;;;5078392;27;45194;-51
2022/07/07 09:14:12;;;;;;;;;2.60;2.00;;;;;;;;5077780;27;45558;-51
2022/07/07 09:16:37;;;;;;;;;1.80;1.20;;;;;;;;5078263;27;45370;-52
2022/07/07 09:19:05;;;;;;;;;2.00;2.00;;;;;;;;5076315;27;45475;-52
2022/07/07 09:21:31;;;;;;;;;2.00;1.20;;;;;;;;5093761;27;45336;-56
2022/07/07 09:24:00;;;;;;;;;1.00;1.00;;;;;;;;5097906;27;45708;-56
2022/07/07 09:26:35;;;;;;;;;0.80;0.80;;;;;;;;5076867;27;45373;-44
2022/07/07 09:29:01;;;;;;;;;1.00;1.00;;;;;;;;5077036;27;45581;-55
2022/07/07 09:31:30;;;;;;;;;1.00;1.00;;;;;;;;5073929;27;45643;-47
2022/07/07 09:34:12;;;;;;;;;2.00;2.00;;;;;;;;5075251;28;45595;-49
2022/07/07 09:39:21;;;;;;;;;1.20;1.20;;;;;;;;5077154;28;45422;-46
2022/07/07 09:41:46;;;;;;;;;0.00;0.00;;;;;;;;5077228;28;45450;-50
2022/07/07 09:44:11;;;;;;;;;1.00;1.00;;;;;;;;5074839;27;46447;-50
2022/07/07 09:46:36;;;;;;;;;0.50;0.50;;;;;;;;5077209;27;45415;-49
2022/07/07 09:49:02;;;;;;;;;2.00;1.50;;;;;;;;5077486;28;45509;-52
2022/07/07 09:51:30;;;;;;;;;1.00;1.00;;;;;;;;5077340;27;45372;-51
2022/07/07 09:53:58;;;;;;;;;0.20;0.20;;;;;;;;5077047;28;45707;-50
2022/07/07 09:56:28;;;;;;;;;1.60;1.60;;;;;;;;5076157;27;45418;-47
2022/07/07 09:58:53;;;;;;;;;3.20;1.00;;;;;;;;5094935;27;45312;-54
2022/07/07 10:01:21;;;;;;;;;2.75;1.50;;;;;;;;5097944;27;45313;-53
2022/07/07 10:03:46;;;;;;;;;1.40;1.40;;;;;;;;5097455;27;45745;-55
2022/07/07 10:06:11;;;;;;;;;2.25;2.25;;;;;;;;5096270;27;45332;-46
2022/07/07 10:08:39;;;;;;;;;3.00;1.75;;;;;;;;5076719;27;45380;-48
2022/07/07 10:11:04;;;;;;;;;2.60;1.80;;;;;;;;5076135;28;45664;-51
2022/07/07 10:13:29;;;;;;;;;2.00;2.00;;;;;;;;5076479;27;45277;-54
2022/07/07 10:15:55;;;;;;;;;2.00;2.00;;;;;;;;5075284;28;45380;-52
2022/07/07 10:18:20;;;;;;;;;1.00;1.00;;;;;;;;5076572;27;45381;-49
2022/07/07 10:20:45;;;;;;;;;1.00;1.00;;;;;;;;5084669;27;45517;-51
2022/07/07 10:23:10;;;;;;;;;2.00;2.00;;;;;;;;5095799;27;46504;-47
2022/07/07 10:25:36;;;;;;;;;3.25;3.25;;;;;;;;5097316;27;45490;-46
2022/07/07 10:28:01;;;;;;;;;1.75;1.75;;;;;;;;5088129;27;45290;-50
2022/07/07 10:30:27;;;;;;;;;3.00;2.00;;;;;;;;5097268;27;45313;-55
2022/07/07 10:32:53;;;;;;;;;2.80;2.00;;;;;;;;5077807;27;46189;-53
2022/07/07 10:35:18;;;;;;;;;2.00;2.00;;;;;;;;5075310;28;45443;-51
2022/07/07 10:37:53;;;;;;;;;2.00;2.00;;;;;;;;5077160;27;45793;-47
2022/07/07 10:40:21;;;;;;;;;4.00;1.80;;;;;;;;5077343;27;45278;-50
2022/07/07 10:42:52;;;;;;;;;2.00;2.00;;;;;;;;5076153;27;45410;-55
2022/07/07 10:45:18;;;;;;;;;1.80;1.80;;;;;;;;5075856;27;45298;-54
2022/07/07 10:47:43;;;;;;;;;2.25;2.25;;;;;;;;5044056;27;45915;-48
2022/07/07 10:50:22;;;;;;;;;1.75;1.75;;;;;;;;5075650;28;45355;-47
2022/07/07 10:52:47;;;;;;;;;1.40;1.40;;;;;;;;5074997;28;45821;-52
2022/07/07 10:55:13;;;;;;;;;2.25;2.25;;;;;;;;5075250;27;45557;-47
2022/07/07 10:57:39;;;;;;;;;2.50;2.00;;;;;;;;5076223;27;45575;-47
2022/07/07 11:00:09;;;;;;;;;4.60;3.80;;;;;;;;5076727;27;45538;-52
2022/07/07 11:02:34;;;;;;;;;1.00;1.00;;;;;;;;5075868;27;45841;-50
2022/07/07 11:05:00;;;;;;;;;2.25;1.50;;;;;;;;5076027;27;45292;-48
2022/07/07 11:07:26;;;;;;;;;3.00;2.00;;;;;;;;5075374;27;45340;-51
2022/07/07 11:09:59;;;;;;;;;1.80;1.80;;;;;;;;5076340;27;45604;-47
2022/07/07 11:12:33;;;;;;;;;2.60;2.60;;;;;;;;5076290;27;46277;-53
2022/07/07 11:15:17;;;;;;;;;4.40;3.00;;;;;;;;5076205;27;45337;-49
2022/07/07 11:17:43;;;;;;;;;2.80;2.80;;;;;;;;5075883;27;45291;-48
2022/07/07 11:20:09;;;;;;;;;2.50;2.00;;;;;;;;5075416;27;46033;-49
2022/07/07 11:22:43;;;;;;;;;2.00;2.00;;;;;;;;5096300;27;46690;-49
2022/07/07 11:25:09;;;;;;;;;4.00;3.00;;;;;;;;5096345;27;45348;-48
2022/07/07 11:27:36;;;;;;;;;2.00;2.00;;;;;;;;5091982;27;45356;-48
2022/07/07 11:30:01;;;;;;;;;1.40;1.40;;;;;;;;5096741;27;45185;-50
2022/07/07 11:32:34;;;;;;;;;3.75;3.00;;;;;;;;5087666;27;45657;-53
2022/07/07 11:35:00;;;;;;;;;8.00;8.00;;;;;;;;5076190;27;45304;-51
2022/07/07 11:37:26;;;;;;;;;8.00;8.00;;;;;;;;5074847;28;45722;-50
2022/07/07 11:39:51;;;;;;;;;4.80;4.80;;;;;;;;5075993;27;45835;-51
2022/07/07 11:42:17;;;;;;;;;2.00;2.00;;;;;;;;5075610;27;45673;-53
2022/07/07 11:44:42;;;;;;;;;3.75;3.75;;;;;;;;5074815;27;45374;-50
2022/07/07 11:47:07;;;;;;;;;4.00;3.00;;;;;;;;5076070;27;45415;-53
2022/07/07 11:49:33;;;;;;;;;4.00;4.00;;;;;;;;5075927;27;45420;-47
2022/07/07 11:51:58;;;;;;;;;6.75;4.00;;;;;;;;5074445;27;46702;-48
2022/07/07 11:54:24;;;;;;;;;2.00;2.00;;;;;;;;5074175;28;45808;-48
2022/07/07 11:56:49;;;;;;;;;3.00;3.00;;;;;;;;5074491;27;45609;-48
2022/07/07 11:59:14;;;;;;;;;2.50;1.00;;;;;;;;5075574;27;45531;-50
2022/07/07 12:01:43;;;;;;;;;2.00;2.00;;;;;;;;5078390;27;45413;-49
2022/07/07 12:04:15;;;;;;;;;2.00;2.00;;;;;;;;5078867;27;45328;-51
2022/07/07 12:06:40;;;;;;;;;2.00;2.00;;;;;;;;5079252;27;45375;-51
2022/07/07 12:09:06;;;;;;;;;2.50;2.50;;;;;;;;5071505;27;45386;-51
2022/07/07 12:11:36;;;;;;;;;2.75;2.75;;;;;;;;5068880;27;46339;-47
2022/07/07 12:14:02;;;;;;;;;2.20;2.20;;;;;;;;5085067;27;45429;-52
2022/07/07 12:16:39;;;;;;;;;1.75;1.75;;;;;;;;5097961;27;45295;-52
2022/07/07 12:19:05;;;;;;;;;2.60;2.60;;;;;;;;5098370;27;45482;-46
2022/07/07 12:21:31;;;;;;;;;3.00;3.00;;;;;;;;5084832;27;46586;-48
2022/07/07 12:23:56;;;;;;;;;1.25;1.25;;;;;;;;5077043;27;45950;-51
2022/07/07 12:26:25;;;;;;;;;3.75;2.25;;;;;;;;5082267;27;45405;-51
2022/07/07 12:28:51;;;;;;;;;2.20;2.20;;;;;;;;5066067;27;45981;-50
2022/07/07 12:31:21;;;;;;;;;4.00;2.00;;;;;;;;5076947;27;46051;-49
2022/07/07 12:33:46;;;;;;;;;4.00;2.00;;;;;;;;5076635;28;45459;-47
2022/07/07 12:36:15;;;;;;;;;3.00;3.00;;;;;;;;5077063;27;45404;-46
2022/07/07 12:38:41;;;;;;;;;2.00;2.00;;;;;;;;5077332;27;45339;-45
2022/07/07 12:41:07;;;;;;;;;3.50;2.50;;;;;;;;5075563;28;46756;-45
2022/07/07 12:43:33;;;;;;;;;4.00;4.00;;;;;;;;5074424;28;45406;-48
2022/07/07 12:46:09;;;;;;;;;2.80;2.80;;;;;;;;5076754;28;45517;-48
2022/07/07 12:48:41;;;;;;;;;3.80;3.80;;;;;;;;5077337;27;45669;-46
2022/07/07 12:51:06;;;;;;;;;1.40;1.40;;;;;;;;5077394;27;45504;-52
2022/07/07 12:53:35;;;;;;;;;2.00;2.00;;;;;;;;5076506;27;45625;-48
2022/07/07 12:56:00;;;;;;;;;2.80;2.80;;;;;;;;5075010;27;45312;-51
2022/07/07 12:58:26;;;;;;;;;4.00;3.00;;;;;;;;5075549;28;45401;-45
2022/07/07 13:00:56;;;;;;;;;3.75;2.75;;;;;;;;5074255;27;47545;-47
2022/07/07 13:03:21;;;;;;;;;3.40;3.40;;;;;;;;5071087;27;45384;-53
2022/07/07 13:05:47;;;;;;;;;3.00;2.75;;;;;;;;5087297;27;45323;-54
2022/07/07 13:08:12;;;;;;;;;2.50;2.50;;;;;;;;5073821;27;45541;-49
2022/07/07 13:10:38;;;;;;;;;3.00;3.00;;;;;;;;5062860;27;45561;-48
2022/07/07 13:13:03;;;;;;;;;3.75;3.50;;;;;;;;5076056;27;45709;-55
2022/07/07 13:15:29;;;;;;;;;3.00;3.00;;;;;;;;5076184;27;45364;-51
2022/07/07 13:17:54;;;;;;;;;2.00;2.00;;;;;;;;5076716;28;45415;-50
2022/07/07 13:20:20;;;;;;;;;3.00;3.00;;;;;;;;5075255;27;47374;-50
2022/07/07 13:22:45;;;;;;;;;3.25;3.25;;;;;;;;5087514;27;45482;-51
2022/07/07 13:25:11;;;;;;;;;2.25;2.25;;;;;;;;5072594;27;45463;-51
2022/07/07 13:27:36;;;;;;;;;3.00;3.00;;;;;;;;5076291;27;45579;-54
2022/07/07 13:30:02;;;;;;;;;4.25;3.25;;;;;;;;5074491;28;46208;-50
2022/07/07 13:32:27;;;;;;;;;5.75;2.25;;;;;;;;5076705;27;45654;-46
2022/07/07 13:34:52;;;;;;;;;3.50;2.25;;;;;;;;5076716;28;45562;-50
2022/07/07 13:37:18;;;;;;;;;3.25;3.25;;;;;;;;5078641;27;45656;-54
2022/07/07 13:39:43;;;;;;;;;3.75;3.75;;;;;;;;5078901;28;45814;-50
2022/07/07 13:42:09;;;;;;;;;2.25;2.25;;;;;;;;5080595;27;45209;-55
2022/07/07 13:44:35;;;;;;;;;2.00;2.00;;;;;;;;5080775;28;45143;-55
2022/07/07 13:47:00;;;;;;;;;6.25;3.75;;;;;;;;5079675;28;45365;-50
2022/07/07 13:49:25;;;;;;;;;3.00;3.00;;;;;;;;5080449;27;46001;-48
2022/07/07 13:51:51;;;;;;;;;3.25;3.25;;;;;;;;5080408;28;45204;-53
2022/07/07 13:54:17;;;;;;;;;4.00;2.75;;;;;;;;5080465;27;45139;-48
2022/07/07 13:56:42;;;;;;;;;4.40;3.00;;;;;;;;5080391;27;45436;-51
2022/07/07 13:59:08;;;;;;;;;3.00;3.00;;;;;;;;5079926;28;45919;-48
2022/07/07 14:01:33;;;;;;;;;3.75;2.25;;;;;;;;5080218;28;45208;-50
2022/07/07 14:03:58;;;;;;;;;7.50;5.50;;;;;;;;5079140;28;45407;-52
2022/07/07 14:06:24;;;;;;;;;8.50;5.75;;;;;;;;5080448;27;45443;-49
2022/07/07 14:08:49;;;;;;;;;4.00;4.00;;;;;;;;5080019;27;45577;-48
2022/07/07 14:11:14;;;;;;;;;3.00;3.00;;;;;;;;5079880;27;45463;-45
2022/07/07 14:13:40;;;;;;;;;2.00;2.00;;;;;;;;5080231;28;45435;-45
2022/07/07 14:16:05;;;;;;;;;1.75;1.75;;;;;;;;5079096;28;45495;-46
2022/07/07 14:18:31;;;;;;;;;4.25;4.00;;;;;;;;5079323;28;46593;-47
2022/07/07 14:20:57;;;;;;;;;4.00;2.00;;;;;;;;5079502;27;45375;-47
2022/07/07 14:23:22;;;;;;;;;1.75;1.75;;;;;;;;5078989;27;45411;-54
2022/07/07 14:25:47;;;;;;;;;1.50;1.00;;;;;;;;5079660;28;45299;-48
2022/07/07 14:28:12;;;;;;;;;1.25;1.25;;;;;;;;5079349;28;46099;-45
2022/07/07 14:30:38;;;;;;;;;1.50;1.50;;;;;;;;5079491;27;45475;-48
2022/07/07 14:33:03;;;;;;;;;3.00;3.00;;;;;;;;5079593;28;45367;-45
2022/07/07 14:35:28;;;;;;;;;2.50;2.50;;;;;;;;5079431;28;45603;-43
2022/07/07 14:37:53;;;;;;;;;4.00;2.00;;;;;;;;5079314;27;45823;-45